METAR AND TAF INFORMATION
METAR FOR KCGF
ADDS - METARS form results

(0632 UTC 20 April 2019)
Data provider http://aviationweather.gov/metar/data/
 
METAR text: KCGF 200615Z AUTO 03018G24KT 10SM OVC004 05/04 A2960 RMK AO2 FZRANO T00490043
Conditions at: KCGF (CLEVLND/CUYAHOGA, OH, US) observed 0615 UTC 20 April 2019
Temperature: 4.9°C (41°F)
Dewpoint: 4.3°C (40°F) [RH = 96%]
Pressure (altimeter): 29.60 inches Hg (1002.5 mb)
Winds: from the NNE (30 degrees) at 21 MPH (18 knots; 9.3 m/s)
gusting to 28 MPH (24 knots; 12.3 m/s)
Visibility: 10 or more miles (16+ km)
Ceiling: 400 feet AGL
Clouds: overcast cloud deck at 400 feet AGL
Weather: automated observation with no human augmentation;
there may or may not be significant weather present at this time

METAR text: KCGF 200555Z AUTO 03012G22KT 10SM OVC004 05/04 A2960 RMK AO2 FZRANO T00500044 10069 20050 60008
Conditions at: KCGF (CLEVLND/CUYAHOGA, OH, US) observed 0555 UTC 20 April 2019
Temperature: 5.0°C (41°F)
Dewpoint: 4.4°C (40°F) [RH = 96%]
Pressure (altimeter): 29.60 inches Hg (1002.5 mb)
Winds: from the NNE (30 degrees) at 14 MPH (12 knots; 6.2 m/s)
gusting to 25 MPH (22 knots; 11.3 m/s)
Visibility: 10 or more miles (16+ km)
Ceiling: 400 feet AGL
Clouds: overcast cloud deck at 400 feet AGL
Weather: automated observation with no human augmentation;
there may or may not be significant weather present at this time

METAR text: KCGF 200535Z AUTO 04019G26KT 10SM OVC004 05/04 A2960 RMK AO2 FZRANO T00500044
Conditions at: KCGF (CLEVLND/CUYAHOGA, OH, US) observed 0535 UTC 20 April 2019
Temperature: 5.0°C (41°F)
Dewpoint: 4.4°C (40°F) [RH = 96%]
Pressure (altimeter): 29.60 inches Hg (1002.5 mb)
Winds: from the NE (40 degrees) at 22 MPH (19 knots; 9.8 m/s)
gusting to 30 MPH (26 knots; 13.4 m/s)
Visibility: 10 or more miles (16+ km)
Ceiling: 400 feet AGL
Clouds: overcast cloud deck at 400 feet AGL
Weather: automated observation with no human augmentation;
there may or may not be significant weather present at this time

 AIRPORT MAP

 RUNWAY INFORMATION
Runway 06 Runway length 5102 ft Runway width 100 ft
Runway elevation 873 ft Runway displaced threshold 0 ft Runway heading 50
Runway 24 Runway length 5102 ft Runway width 100 ft
Runway elevation 879 ft Runway displaced threshold 0 ft Runway heading 230

 AIRPORT FREQUENCIES
Type A/D Name CLEVELAND Frequency 125.35 MHZ
Type CTAF Name CTAF Frequency 118.5 MHZ
Type GCCD Name GND/CLNC D Frequency 121.85 MHZ
Type TWR Name COUNTY TWR Frequency 118.5 MHZ
Type UNIC Name UNICOM Frequency 122.95 MHZ

 AIRPORT NEAR NAVIGATION AIDS
Type VOR-DME Name Chardon Frequency 112700 KHZ
Type NDB Name Hogaf Frequency 521 KHZ



Powered by Virtual Airlines Manager [[v2.6.2]]